Time;durP1;ratioP1;P1;durP2;ratioP2;P2;SDS_P1;SDS_P2;PMS_P1;PMS_P2;Temp;Humidity;BMP_temperature;BMP_pressure;BME280_temperature;BME280_humidity;BME280_pressure;Samples;Min_cycle;Max_cycle;Signal;HPM_P1;HPM_P2
2022/04/16 00:00:08;;;;;;;;;;;8.80;99.90;;;;;;4977711;28;20290;-84
2022/04/16 00:02:34;;;;;;;;;;;8.80;99.90;;;;;;4977811;28;19918;-84
2022/04/16 00:04:59;;;;;;;;;;;8.70;99.90;;;;;;4977630;28;19914;-84
2022/04/16 00:07:25;;;;;;;;;;;8.70;99.90;;;;;;4978528;28;19921;-84
2022/04/16 00:09:50;;;;;;;;;;;8.70;99.90;;;;;;4980028;28;19914;-86
2022/04/16 00:12:15;;;;;;;;;;;8.80;99.90;;;;;;4976994;28;19918;-84
2022/04/16 00:14:41;;;;;;;;;;;8.70;99.90;;;;;;4963381;28;19914;-85
2022/04/16 00:17:07;;;;;;;;;;;8.70;99.90;;;;;;4976611;28;19918;-84
2022/04/16 00:19:32;;;;;;;;;;;8.70;99.90;;;;;;4982844;28;19914;-84
2022/04/16 00:22:00;;;;;;;;;;;8.60;1.00;;;;;;4982737;28;20442;-84
2022/04/16 00:24:28;;;;;;;;;;;8.60;1.00;;;;;;4981976;28;19978;-84
2022/04/16 00:26:54;;;;;;;;;;;8.60;1.00;;;;;;4980707;28;19945;-82
2022/04/16 00:29:19;;;;;;;;;;;8.60;1.00;;;;;;4966034;28;21038;-84
2022/04/16 00:31:47;;;;;;;;;;;8.60;1.00;;;;;;4981621;28;19925;-84
2022/04/16 00:34:14;;;;;;;;;;;8.50;1.00;;;;;;4964506;28;19922;-84
2022/04/16 00:36:44;;;;;;;;;;;8.50;1.00;;;;;;4983405;28;20286;-84
2022/04/16 00:39:09;;;;;;;;;;;8.60;1.00;;;;;;4965269;28;19913;-84
2022/04/16 00:41:35;;;;;;;;;;;8.50;1.00;;;;;;4961651;28;20341;-84
2022/04/16 00:44:00;;;;;;;;;;;8.50;1.00;;;;;;4963045;28;19914;-84
2022/04/16 00:46:26;;;;;;;;;;;8.50;1.00;;;;;;4982092;28;19922;-86
2022/04/16 00:48:52;;;;;;;;;;;8.50;1.00;;;;;;4981512;28;19918;-84
2022/04/16 00:51:17;;;;;;;;;;;8.40;1.00;;;;;;4980378;28;19922;-84
2022/04/16 00:53:43;;;;;;;;;;;8.40;1.00;;;;;;4980924;28;19981;-85
2022/04/16 00:56:10;;;;;;;;;;;8.40;11.80;;;;;;4983674;28;19914;-84
2022/04/16 00:58:38;;;;;;;;;;;8.40;92.80;;;;;;4976491;28;19921;-83
2022/04/16 01:01:03;;;;;;;;;;;8.30;99.90;;;;;;4982452;28;19952;-84
2022/04/16 01:03:29;;;;;;;;;;;8.30;99.90;;;;;;4981918;28;20302;-84
2022/04/16 01:05:55;;;;;;;;;;;8.30;99.90;;;;;;4981895;28;19942;-83
2022/04/16 01:08:22;;;;;;;;;;;8.30;99.90;;;;;;4981301;28;19925;-84
2022/04/16 01:10:48;;;;;;;;;;;8.30;99.90;;;;;;4982325;28;19914;-83
2022/04/16 01:13:14;;;;;;;;;;;8.20;99.90;;;;;;4963803;28;20009;-84
2022/04/16 01:15:41;;;;;;;;;;;8.30;99.90;;;;;;4963899;28;19914;-84
2022/04/16 01:18:07;;;;;;;;;;;8.30;99.90;;;;;;4978906;28;19922;-84
2022/04/16 01:20:34;;;;;;;;;;;8.20;99.90;;;;;;4982856;28;19922;-84
2022/04/16 01:22:59;;;;;;;;;;;8.30;99.90;;;;;;4979311;28;20024;-84
2022/04/16 01:25:27;;;;;;;;;;;8.20;99.90;;;;;;4982371;28;19933;-84
2022/04/16 01:27:53;;;;;;;;;;;8.20;99.90;;;;;;4982512;28;19949;-84
2022/04/16 01:30:19;;;;;;;;;;;8.30;99.90;;;;;;4980745;28;19918;-84
2022/04/16 01:32:45;;;;;;;;;;;8.30;99.90;;;;;;4982156;28;20322;-84
2022/04/16 01:35:11;;;;;;;;;;;8.30;99.90;;;;;;4961836;28;19921;-84
2022/04/16 01:37:37;;;;;;;;;;;8.30;99.90;;;;;;4981550;28;19957;-84
2022/04/16 01:40:07;;;;;;;;;;;8.30;99.90;;;;;;4981944;28;19914;-83
2022/04/16 01:42:32;;;;;;;;;;;8.30;99.90;;;;;;4981197;28;19922;-83
2022/04/16 01:45:09;;;;;;;;;;;8.30;99.90;;;;;;4983085;28;19937;-84
2022/04/16 01:47:36;;;;;;;;;;;8.30;99.90;;;;;;4978746;28;20086;-84
2022/04/16 01:50:03;;;;;;;;;;;8.30;99.90;;;;;;4982286;28;19922;-86
2022/04/16 01:52:28;;;;;;;;;;;8.20;99.90;;;;;;4977895;28;19946;-84
2022/04/16 01:54:54;;;;;;;;;;;8.20;99.90;;;;;;4981616;28;19937;-84
2022/04/16 01:57:22;;;;;;;;;;;8.20;58.10;;;;;;4975319;28;19989;-84
2022/04/16 01:59:48;;;;;;;;;;;8.20;20.70;;;;;;4963501;28;19968;-84
2022/04/16 02:02:14;;;;;;;;;;;8.20;1.00;;;;;;4976701;28;19922;-84
2022/04/16 02:04:40;;;;;;;;;;;8.20;1.00;;;;;;4965075;28;19914;-84
2022/04/16 02:07:06;;;;;;;;;;;8.20;1.00;;;;;;4965731;28;19914;-83
2022/04/16 02:09:31;;;;;;;;;;;8.20;1.00;;;;;;4983261;28;19914;-84
2022/04/16 02:11:57;;;;;;;;;;;8.10;1.00;;;;;;4978796;28;19921;-83
2022/04/16 02:14:22;;;;;;;;;;;8.10;1.00;;;;;;4980621;28;20005;-84
2022/04/16 02:16:48;;;;;;;;;;;8.10;3.70;;;;;;4983277;28;19937;-84
2022/04/16 02:19:14;;;;;;;;;;;8.00;36.90;;;;;;4977463;28;20396;-84
2022/04/16 02:21:43;;;;;;;;;;;8.00;81.10;;;;;;4981823;28;19914;-84
2022/04/16 02:24:10;;;;;;;;;;;8.00;93.90;;;;;;4980874;28;19917;-84
2022/04/16 02:26:36;;;;;;;;;;;8.00;99.90;;;;;;4983425;28;20509;-84
2022/04/16 02:29:01;;;;;;;;;;;8.00;99.90;;;;;;4967562;28;19953;-83
2022/04/16 02:31:27;;;;;;;;;;;8.00;99.90;;;;;;4980410;28;19954;-84
2022/04/16 02:33:55;;;;;;;;;;;8.00;99.90;;;;;;4978397;28;20406;-84
2022/04/16 02:36:25;;;;;;;;;;;7.90;99.90;;;;;;4979600;28;21594;-84
2022/04/16 02:38:54;;;;;;;;;;;7.90;99.90;;;;;;4982054;28;20001;-84
2022/04/16 02:41:22;;;;;;;;;;;7.90;99.90;;;;;;4982355;28;20333;-84
2022/04/16 02:43:48;;;;;;;;;;;7.90;99.90;;;;;;4979224;28;20379;-83
2022/04/16 02:48:58;;;;;;;;;;;7.90;99.90;;;;;;4976684;28;19965;-84
2022/04/16 02:51:24;;;;;;;;;;;7.80;99.90;;;;;;4979095;28;19924;-85
2022/04/16 02:53:49;;;;;;;;;;;7.80;99.90;;;;;;4963576;28;19915;-84
2022/04/16 02:56:15;;;;;;;;;;;7.80;99.90;;;;;;4978301;28;19914;-84
2022/04/16 02:58:41;;;;;;;;;;;7.80;99.90;;;;;;4963158;28;19922;-83
2022/04/16 03:01:06;;;;;;;;;;;7.80;99.90;;;;;;4984748;28;19984;-83
2022/04/16 03:03:32;;;;;;;;;;;7.70;99.30;;;;;;4978696;28;20329;-83
2022/04/16 03:05:57;;;;;;;;;;;7.70;99.90;;;;;;4979805;28;19958;-83
2022/04/16 03:08:24;;;;;;;;;;;7.70;99.90;;;;;;4979475;28;20018;-84
2022/04/16 03:10:50;;;;;;;;;;;7.60;99.90;;;;;;4981005;28;19914;-83
2022/04/16 03:13:16;;;;;;;;;;;7.60;99.90;;;;;;4959332;28;19921;-83
2022/04/16 03:18:25;;;;;;;;;;;7.60;99.90;;;;;;4980567;28;19992;-83
2022/04/16 03:20:51;;;;;;;;;;;7.60;99.90;;;;;;4981645;28;19918;-83
2022/04/16 03:23:16;;;;;;;;;;;7.60;99.90;;;;;;4977272;28;19973;-83
2022/04/16 03:25:43;;;;;;;;;;;7.50;99.90;;;;;;4982961;28;19914;-83
2022/04/16 03:28:09;;;;;;;;;;;7.50;99.90;;;;;;4967861;28;19921;-84
2022/04/16 03:30:34;;;;;;;;;;;7.50;99.90;;;;;;4963126;28;19914;-83
2022/04/16 03:32:59;;;;;;;;;;;7.40;99.90;;;;;;4981718;28;19969;-83
2022/04/16 03:35:25;;;;;;;;;;;7.40;99.90;;;;;;4985401;28;19982;-83
2022/04/16 03:37:50;;;;;;;;;;;7.50;99.90;;;;;;4981109;28;20318;-83
2022/04/16 03:40:16;;;;;;;;;;;7.40;99.90;;;;;;4976299;28;19918;-83
2022/04/16 03:42:44;;;;;;;;;;;7.40;99.90;;;;;;4961025;28;19930;-83
2022/04/16 03:45:14;;;;;;;;;;;7.40;99.90;;;;;;4978113;28;20391;-83
2022/04/16 03:47:40;;;;;;;;;;;7.40;99.90;;;;;;4979354;28;19914;-83
2022/04/16 03:50:05;;;;;;;;;;;7.40;99.90;;;;;;4980038;28;19952;-83
2022/04/16 03:52:38;;;;;;;;;;;7.30;99.90;;;;;;4977799;28;19918;-83
2022/04/16 04:00:32;;;;;;;;;;;7.20;99.90;;;;;;4986111;28;19965;-84
2022/04/16 04:02:57;;;;;;;;;;;7.20;99.90;;;;;;4983953;28;20322;-83
2022/04/16 04:05:23;;;;;;;;;;;7.20;99.90;;;;;;4984715;28;19914;-83
2022/04/16 04:07:49;;;;;;;;;;;7.20;99.90;;;;;;4980570;28;19914;-83
2022/04/16 04:10:14;;;;;;;;;;;7.20;99.90;;;;;;4985000;28;19921;-83
2022/04/16 04:12:40;;;;;;;;;;;7.10;99.90;;;;;;4983379;28;19961;-83
2022/04/16 04:15:05;;;;;;;;;;;7.10;99.90;;;;;;4983316;28;19920;-83
2022/04/16 04:17:31;;;;;;;;;;;7.10;99.90;;;;;;4979343;28;19928;-83
2022/04/16 04:19:56;;;;;;;;;;;7.10;99.90;;;;;;4979901;28;20409;-83
2022/04/16 04:22:22;;;;;;;;;;;7.10;99.90;;;;;;4981777;28;19918;-83
2022/04/16 04:24:47;;;;;;;;;;;7.10;99.90;;;;;;4985079;28;19962;-83
2022/04/16 04:27:13;;;;;;;;;;;7.10;99.90;;;;;;4985728;28;19925;-83
2022/04/16 04:29:38;;;;;;;;;;;7.10;99.90;;;;;;4980121;28;19921;-83
2022/04/16 04:32:05;;;;;;;;;;;7.10;99.90;;;;;;4970992;28;19921;-83
2022/04/16 04:34:30;;;;;;;;;;;7.00;99.90;;;;;;4983272;28;21474;-83
2022/04/16 04:36:56;;;;;;;;;;;7.00;99.90;;;;;;4983031;28;19924;-83
2022/04/16 04:39:21;;;;;;;;;;;7.00;99.90;;;;;;4972490;28;20382;-83
2022/04/16 04:41:47;;;;;;;;;;;7.00;99.90;;;;;;4982809;28;19925;-83
2022/04/16 04:44:13;;;;;;;;;;;7.00;99.90;;;;;;4967159;28;20381;-83
2022/04/16 04:46:38;;;;;;;;;;;7.00;99.90;;;;;;4985876;28;19914;-84
2022/04/16 04:49:07;;;;;;;;;;;7.00;99.90;;;;;;4982448;28;19920;-84
2022/04/16 04:51:36;;;;;;;;;;;7.00;99.90;;;;;;4981905;28;19914;-83
2022/04/16 04:54:02;;;;;;;;;;;7.00;99.90;;;;;;4963810;28;19942;-84
2022/04/16 04:56:28;;;;;;;;;;;7.00;99.90;;;;;;4984375;28;19921;-84
2022/04/16 04:58:53;;;;;;;;;;;7.10;99.90;;;;;;4981919;28;19928;-83
2022/04/16 05:01:19;;;;;;;;;;;7.20;99.90;;;;;;4965663;28;20413;-83
2022/04/16 05:03:44;;;;;;;;;;;7.20;99.90;;;;;;4965678;28;19937;-84
2022/04/16 05:06:10;;;;;;;;;;;7.30;99.90;;;;;;4984334;28;20326;-82
2022/04/16 05:08:35;;;;;;;;;;;7.30;99.90;;;;;;4982739;28;19914;-83
2022/04/16 05:11:01;;;;;;;;;;;7.40;99.90;;;;;;4983885;28;20314;-83
2022/04/16 05:13:26;;;;;;;;;;;7.40;99.90;;;;;;4978172;28;20005;-83
2022/04/16 05:15:52;;;;;;;;;;;7.50;99.90;;;;;;4966563;28;19914;-83
2022/04/16 05:18:17;;;;;;;;;;;7.60;99.90;;;;;;4982774;28;19925;-83
2022/04/16 05:20:43;;;;;;;;;;;7.70;99.90;;;;;;4963887;28;19965;-84
2022/04/16 05:23:08;;;;;;;;;;;7.70;99.90;;;;;;4982682;28;19918;-83
2022/04/16 05:25:33;;;;;;;;;;;7.80;99.90;;;;;;4965312;28;19926;-83
2022/04/16 05:27:59;;;;;;;;;;;7.90;43.30;;;;;;4966151;28;20000;-83
2022/04/16 05:30:58;;;;;;;;;;;8.10;1.00;;;;;;4964348;28;19961;-83
2022/04/16 05:34:18;;;;;;;;;;;8.20;1.00;;;;;;4976343;28;19975;-83
2022/04/16 05:36:02;;;;;;;;;;;8.70;1.00;;;;;;4985115;28;19925;-85
2022/04/16 05:38:28;;;;;;;;;;;12.40;11.80;;;;;;4982468;28;19915;-86
2022/04/16 05:40:53;;;;;;;;;;;16.50;1.00;;;;;;4990345;28;19914;-85
2022/04/16 05:43:19;;;;;;;;;;;19.90;99.90;;;;;;4987686;28;20361;-84
2022/04/16 05:45:44;;;;;;;;;;;22.80;99.90;;;;;;4972513;28;19942;-84
2022/04/16 05:48:10;;;;;;;;;;;25.10;99.90;;;;;;4983753;28;19921;-84
2022/04/16 05:50:35;;;;;;;;;;;27.00;99.90;;;;;;4977412;28;20366;-84
2022/04/16 05:53:01;;;;;;;;;;;28.60;99.90;;;;;;4965318;28;20001;-84
2022/04/16 05:55:26;;;;;;;;;;;30.00;99.90;;;;;;4981830;28;20363;-85
2022/04/16 05:57:52;;;;;;;;;;;31.30;99.90;;;;;;4978286;28;19914;-83
2022/04/16 06:00:17;;;;;;;;;;;32.30;99.90;;;;;;4977186;28;19917;-84
2022/04/16 06:02:46;;;;;;;;;;;33.30;99.90;;;;;;4981899;28;19922;-84
2022/04/16 06:05:11;;;;;;;;;;;34.00;99.90;;;;;;4983422;28;19957;-84
2022/04/16 06:07:36;;;;;;;;;;;34.80;99.90;;;;;;4957125;28;19960;-85
2022/04/16 06:10:02;;;;;;;;;;;35.40;99.90;;;;;;4981217;28;19992;-85
2022/04/16 06:12:28;;;;;;;;;;;36.20;99.90;;;;;;4976122;28;19921;-84
2022/04/16 06:14:53;;;;;;;;;;;36.90;99.90;;;;;;4961233;28;19969;-84
2022/04/16 06:17:21;;;;;;;;;;;37.50;99.90;;;;;;4974780;28;20009;-84
2022/04/16 06:19:46;;;;;;;;;;;37.90;99.90;;;;;;4970181;28;19968;-84
2022/04/16 06:22:12;;;;;;;;;;;38.00;99.90;;;;;;4975438;28;19914;-84
2022/04/16 06:24:41;;;;;;;;;;;38.50;99.90;;;;;;4962614;28;19921;-84
2022/04/16 06:27:06;;;;;;;;;;;37.90;99.90;;;;;;4976873;28;19914;-84
2022/04/16 06:29:32;;;;;;;;;;;38.20;99.90;;;;;;4987840;28;19921;-84
2022/04/16 06:31:57;;;;;;;;;;;38.10;99.90;;;;;;4977346;28;20008;-85
2022/04/16 06:34:23;;;;;;;;;;;39.10;99.90;;;;;;4976705;28;19914;-84
2022/04/16 06:36:49;;;;;;;;;;;39.50;99.90;;;;;;4977174;28;19929;-84
2022/04/16 06:39:15;;;;;;;;;;;40.40;99.90;;;;;;4976604;28;19922;-84
2022/04/16 06:41:40;;;;;;;;;;;40.40;99.90;;;;;;4976201;28;20014;-85
2022/04/16 06:44:06;;;;;;;;;;;40.20;99.90;;;;;;4963569;28;19910;-85
2022/04/16 06:46:32;;;;;;;;;;;39.60;99.90;;;;;;4976878;28;19914;-84
2022/04/16 06:48:57;;;;;;;;;;;38.60;99.90;;;;;;4962378;28;20000;-84
2022/04/16 06:51:23;;;;;;;;;;;38.00;99.90;;;;;;4969225;28;19921;-82
2022/04/16 06:53:51;;;;;;;;;;;38.30;99.90;;;;;;4977680;28;20211;-85
2022/04/16 06:56:16;;;;;;;;;;;37.50;99.90;;;;;;4976142;28;19914;-84
2022/04/16 06:58:42;;;;;;;;;;;37.90;99.90;;;;;;4975608;28;19920;-84
2022/04/16 07:01:07;;;;;;;;;;;37.50;99.90;;;;;;4974769;28;19924;-84
2022/04/16 07:03:33;;;;;;;;;;;38.30;99.90;;;;;;4960859;28;20334;-85
2022/04/16 07:05:58;;;;;;;;;;;37.50;99.90;;;;;;4973099;28;19915;-85
2022/04/16 07:08:24;;;;;;;;;;;38.10;99.90;;;;;;4971017;28;19937;-86
2022/04/16 07:10:49;;;;;;;;;;;38.60;99.90;;;;;;4971112;28;19918;-85
2022/04/16 07:13:14;;;;;;;;;;;38.70;99.90;;;;;;4972217;28;19978;-85
2022/04/16 07:15:40;;;;;;;;;;;38.10;99.90;;;;;;4969649;28;19925;-85
2022/04/16 07:18:07;;;;;;;;;;;38.40;99.90;;;;;;4970739;28;19921;-86
2022/04/16 07:20:32;;;;;;;;;;;38.30;99.90;;;;;;4969804;28;19954;-85
2022/04/16 07:22:58;;;;;;;;;;;38.40;99.90;;;;;;4967687;28;20020;-86
2022/04/16 07:25:23;;;;;;;;;;;39.00;99.90;;;;;;4972427;28;19944;-85
2022/04/16 07:27:49;;;;;;;;;;;38.60;99.90;;;;;;4968519;28;19914;-85
2022/04/16 07:30:14;;;;;;;;;;;38.50;99.90;;;;;;4976266;28;20336;-85
2022/04/16 07:32:40;;;;;;;;;;;39.10;99.90;;;;;;4971982;28;20294;-85
2022/04/16 07:35:05;;;;;;;;;;;38.70;99.90;;;;;;4977237;28;19924;-85
2022/04/16 07:37:31;;;;;;;;;;;37.70;99.90;;;;;;4971991;28;20353;-85
2022/04/16 07:39:56;;;;;;;;;;;37.50;99.90;;;;;;4972484;28;19969;-84
2022/04/16 07:42:24;;;;;;;;;;;37.80;99.90;;;;;;4971267;28;19914;-85
2022/04/16 07:44:50;;;;;;;;;;;37.40;99.90;;;;;;4972713;28;19914;-84
2022/04/16 07:47:15;;;;;;;;;;;38.00;99.90;;;;;;4972077;28;19921;-85
2022/04/16 07:49:41;;;;;;;;;;;38.50;99.90;;;;;;4958421;28;19942;-85
2022/04/16 07:52:06;;;;;;;;;;;38.50;99.90;;;;;;4971028;28;19936;-85
2022/04/16 07:54:32;;;;;;;;;;;39.20;99.90;;;;;;4974412;28;19914;-85
2022/04/16 07:56:58;;;;;;;;;;;38.80;99.90;;;;;;4972994;28;20005;-85
2022/04/16 07:59:23;;;;;;;;;;;39.00;99.90;;;;;;4964998;28;19957;-84
2022/04/16 08:01:49;;;;;;;;;;;38.90;99.90;;;;;;4972104;28;19925;-85
2022/04/16 08:04:14;;;;;;;;;;;39.00;99.90;;;;;;4970136;28;20297;-85
2022/04/16 08:06:40;;;;;;;;;;;39.40;99.90;;;;;;4973596;28;19921;-85
2022/04/16 08:09:05;;;;;;;;;;;38.90;99.90;;;;;;4973175;28;19909;-85
2022/04/16 08:11:31;;;;;;;;;;;38.80;99.90;;;;;;4973088;28;19945;-84
2022/04/16 08:13:57;;;;;;;;;;;39.00;99.90;;;;;;4972767;28;19957;-85
2022/04/16 08:16:23;;;;;;;;;;;40.10;99.90;;;;;;4972943;28;20008;-85
2022/04/16 08:18:48;;;;;;;;;;;40.50;99.90;;;;;;4972409;28;20374;-85
2022/04/16 08:21:14;;;;;;;;;;;40.40;99.90;;;;;;4969944;28;19915;-85
2022/04/16 08:23:44;;;;;;;;;;;39.70;99.90;;;;;;4968142;28;19910;-85
2022/04/16 08:26:11;;;;;;;;;;;40.90;99.90;;;;;;4975345;28;19923;-85
2022/04/16 08:28:36;;;;;;;;;;;41.20;99.90;;;;;;4969806;28;19918;-85
2022/04/16 08:31:02;;;;;;;;;;;42.40;99.90;;;;;;4971460;28;20378;-85
2022/04/16 08:33:28;;;;;;;;;;;42.40;99.90;;;;;;4971996;28;19923;-85
2022/04/16 08:35:53;;;;;;;;;;;42.30;99.90;;;;;;4971748;28;19989;-85
2022/04/16 08:38:18;;;;;;;;;;;42.10;99.90;;;;;;4973633;28;19914;-85
2022/04/16 08:40:46;;;;;;;;;;;40.50;99.90;;;;;;4976213;28;19910;-85
2022/04/16 08:43:12;;;;;;;;;;;40.00;99.90;;;;;;4975453;28;20405;-85
2022/04/16 08:45:38;;;;;;;;;;;39.70;99.90;;;;;;4975609;28;19910;-84
2022/04/16 08:48:03;;;;;;;;;;;38.40;99.90;;;;;;4974467;28;19914;-85
2022/04/16 08:50:29;;;;;;;;;;;39.00;99.90;;;;;;4977065;28;19981;-85
2022/04/16 08:52:54;;;;;;;;;;;39.80;99.90;;;;;;4974639;28;20398;-85
2022/04/16 08:55:20;;;;;;;;;;;40.60;99.90;;;;;;4975457;28;19944;-85
2022/04/16 08:57:45;;;;;;;;;;;40.10;99.90;;;;;;4974914;28;19946;-85
2022/04/16 09:00:14;;;;;;;;;;;40.30;99.90;;;;;;4980334;28;19914;-85
2022/04/16 09:02:49;;;;;;;;;;;41.10;99.90;;;;;;4973652;28;20371;-85
2022/04/16 09:05:17;;;;;;;;;;;42.30;99.90;;;;;;4973770;28;19985;-85
2022/04/16 09:07:50;;;;;;;;;;;43.60;99.90;;;;;;4976940;28;19996;-84
2022/04/16 09:10:16;;;;;;;;;;;43.10;99.90;;;;;;4973525;28;19937;-85
2022/04/16 09:12:41;;;;;;;;;;;44.20;99.90;;;;;;4969537;28;19922;-85
2022/04/16 09:15:08;;;;;;;;;;;45.00;99.90;;;;;;4974509;28;19954;-85
2022/04/16 09:17:34;;;;;;;;;;;43.30;99.90;;;;;;4959460;28;19969;-84
2022/04/16 09:19:59;;;;;;;;;;;38.80;99.90;;;;;;4978047;28;19922;-85
2022/04/16 09:22:28;;;;;;;;;;;39.00;99.90;;;;;;4976516;28;19914;-85
2022/04/16 09:24:54;;;;;;;;;;;39.40;99.90;;;;;;4975447;28;19946;-85
2022/04/16 09:27:19;;;;;;;;;;;36.20;99.90;;;;;;4974440;28;19914;-85
2022/04/16 09:29:46;;;;;;;;;;;33.40;99.90;;;;;;4977656;28;19914;-84
2022/04/16 09:32:20;;;;;;;;;;;31.80;99.90;;;;;;4980705;28;19929;-85
2022/04/16 09:34:46;;;;;;;;;;;32.70;99.90;;;;;;4974703;28;20009;-85
2022/04/16 09:37:12;;;;;;;;;;;35.70;99.90;;;;;;4974467;28;19958;-85
2022/04/16 09:39:38;;;;;;;;;;;35.80;99.90;;;;;;4954355;28;19922;-85
2022/04/16 09:42:03;;;;;;;;;;;36.30;99.90;;;;;;4976583;28;19925;-85
2022/04/16 09:44:29;;;;;;;;;;;35.90;99.90;;;;;;4959061;28;20357;-85
2022/04/16 09:46:57;;;;;;;;;;;36.10;99.90;;;;;;4974781;28;19920;-85
2022/04/16 09:49:24;;;;;;;;;;;34.70;99.90;;;;;;4959229;28;19926;-84
2022/04/16 09:51:50;;;;;;;;;;;32.50;99.90;;;;;;4978863;28;20283;-85
2022/04/16 09:54:16;;;;;;;;;;;33.20;99.90;;;;;;4958020;28;19925;-85
2022/04/16 09:56:44;;;;;;;;;;;33.80;99.90;;;;;;4974325;28;19918;-85
2022/04/16 09:59:12;;;;;;;;;;;32.80;99.90;;;;;;4972105;28;19997;-85
2022/04/16 10:01:38;;;;;;;;;;;33.50;99.90;;;;;;4970123;28;20005;-85
2022/04/16 10:04:07;;;;;;;;;;;34.20;99.90;;;;;;4971882;28;19922;-84
2022/04/16 10:06:32;;;;;;;;;;;33.60;99.90;;;;;;4973072;28;19914;-85
2022/04/16 10:09:00;;;;;;;;;;;32.70;99.90;;;;;;4977933;28;19922;-85
2022/04/16 10:14:19;;;;;;;;;;;29.00;99.90;;;;;;4977371;28;19972;-84
2022/04/16 10:17:05;;;;;;;;;;;30.30;99.90;;;;;;4961988;28;19914;-84
2022/04/16 10:19:40;;;;;;;;;;;30.40;99.90;;;;;;4975363;28;19925;-85
2022/04/16 10:22:06;;;;;;;;;;;31.90;99.90;;;;;;4975307;28;19933;-85
2022/04/16 10:24:31;;;;;;;;;;;32.60;99.90;;;;;;4975806;28;20330;-84
2022/04/16 10:27:04;;;;;;;;;;;33.30;99.90;;;;;;4973424;28;19914;-85
2022/04/16 10:29:36;;;;;;;;;;;33.40;99.90;;;;;;4973911;28;19918;-85
2022/04/16 10:32:02;;;;;;;;;;;33.50;99.90;;;;;;4954348;28;19926;-85
2022/04/16 10:34:30;;;;;;;;;;;33.50;99.90;;;;;;4971543;28;19957;-85
2022/04/16 10:36:56;;;;;;;;;;;34.20;99.90;;;;;;4969990;28;19938;-85
2022/04/16 10:39:27;;;;;;;;;;;34.10;99.90;;;;;;4975158;28;19914;-86
2022/04/16 10:41:57;;;;;;;;;;;33.80;99.90;;;;;;4971008;28;19914;-85
2022/04/16 10:44:23;;;;;;;;;;;33.90;99.90;;;;;;4972014;28;19914;-85
2022/04/16 10:46:49;;;;;;;;;;;34.60;99.90;;;;;;4972267;28;19946;-85
2022/04/16 10:49:18;;;;;;;;;;;33.90;99.90;;;;;;4973776;28;19918;-85
2022/04/16 10:51:44;;;;;;;;;;;35.50;99.90;;;;;;4978474;28;19949;-84
2022/04/16 10:54:10;;;;;;;;;;;36.50;99.90;;;;;;4979970;28;19937;-84
2022/04/16 10:56:42;;;;;;;;;;;36.80;99.90;;;;;;4980050;28;20008;-84
2022/04/16 10:59:08;;;;;;;;;;;35.30;99.90;;;;;;4979437;28;19928;-83
2022/04/16 11:01:34;;;;;;;;;;;33.70;99.90;;;;;;4982440;28;19914;-84
2022/04/16 11:04:10;;;;;;;;;;;34.00;99.90;;;;;;4980120;28;19920;-83
2022/04/16 11:06:35;;;;;;;;;;;34.80;99.90;;;;;;4977435;28;19936;-84
2022/04/16 11:09:01;;;;;;;;;;;35.90;99.90;;;;;;4978224;28;19918;-84
2022/04/16 11:11:27;;;;;;;;;;;35.10;99.90;;;;;;4977790;28;19937;-84
2022/04/16 11:13:53;;;;;;;;;;;34.90;99.90;;;;;;4974365;28;19918;-83
2022/04/16 11:16:25;;;;;;;;;;;34.10;99.90;;;;;;4976865;28;20334;-83
2022/04/16 11:18:50;;;;;;;;;;;32.80;99.90;;;;;;4977647;28;19978;-83
2022/04/16 11:21:18;;;;;;;;;;;33.10;99.90;;;;;;4978542;28;19961;-84
2022/04/16 11:23:50;;;;;;;;;;;33.10;99.90;;;;;;4979994;28;19929;-84
2022/04/16 11:34:31;;;;;;;;;;;32.60;99.90;;;;;;4979935;28;19960;-83
2022/04/16 11:36:58;;;;;;;;;;;32.40;99.90;;;;;;4974891;28;19915;-83
2022/04/16 11:39:28;;;;;;;;;;;31.50;99.90;;;;;;4977584;28;19937;-83
2022/04/16 11:41:54;;;;;;;;;;;29.70;99.90;;;;;;4977538;28;19914;-82
2022/04/16 11:44:28;;;;;;;;;;;29.20;99.90;;;;;;4985336;28;19915;-83
2022/04/16 11:46:54;;;;;;;;;;;29.60;99.90;;;;;;4980395;28;19921;-83
2022/04/16 11:49:19;;;;;;;;;;;29.90;99.90;;;;;;4986224;28;19914;-83
2022/04/16 11:51:45;;;;;;;;;;;30.30;99.90;;;;;;4977437;28;19914;-83
2022/04/16 11:54:10;;;;;;;;;;;29.50;99.90;;;;;;4960056;28;19922;-83
2022/04/16 11:56:36;;;;;;;;;;;27.90;99.90;;;;;;4977054;28;19921;-83
2022/04/16 11:59:02;;;;;;;;;;;27.30;99.90;;;;;;4976065;28;19925;-83
2022/04/16 12:01:27;;;;;;;;;;;27.60;99.90;;;;;;4964864;28;19976;-83
2022/04/16 12:03:53;;;;;;;;;;;27.80;99.90;;;;;;4976894;28;19914;-83
2022/04/16 12:06:18;;;;;;;;;;;28.20;99.90;;;;;;4974043;28;20146;-83
2022/04/16 12:08:45;;;;;;;;;;;29.00;99.90;;;;;;4984081;28;19929;-83
2022/04/16 12:11:11;;;;;;;;;;;29.90;99.90;;;;;;4981874;28;19922;-83
2022/04/16 12:13:37;;;;;;;;;;;30.50;99.90;;;;;;4979842;28;19972;-83
2022/04/16 12:16:04;;;;;;;;;;;30.60;99.90;;;;;;4980096;28;19922;-83
2022/04/16 12:18:34;;;;;;;;;;;30.10;99.90;;;;;;4963251;28;19914;-83
2022/04/16 12:21:05;;;;;;;;;;;29.60;99.90;;;;;;4979846;28;20330;-83
2022/04/16 12:23:30;;;;;;;;;;;28.70;99.90;;;;;;4960358;28;19972;-84
2022/04/16 12:26:08;;;;;;;;;;;28.60;99.90;;;;;;4966029;28;19914;-83
2022/04/16 12:28:35;;;;;;;;;;;27.70;99.90;;;;;;4975636;28;20574;-84
2022/04/16 12:31:00;;;;;;;;;;;27.40;99.90;;;;;;4962990;28;19918;-83
2022/04/16 12:33:26;;;;;;;;;;;27.90;99.90;;;;;;4979911;28;19933;-83
2022/04/16 12:35:55;;;;;;;;;;;28.00;99.90;;;;;;4980805;28;19993;-81
2022/04/16 12:38:21;;;;;;;;;;;28.30;99.90;;;;;;4978706;28;19918;-81
2022/04/16 12:40:46;;;;;;;;;;;28.80;99.90;;;;;;4982777;28;19914;-82
2022/04/16 12:43:12;;;;;;;;;;;29.40;99.90;;;;;;4981064;28;20001;-82
2022/04/16 12:45:37;;;;;;;;;;;29.60;99.90;;;;;;4963988;28;20008;-83
2022/04/16 12:48:03;;;;;;;;;;;29.90;99.90;;;;;;4979750;28;19914;-82
2022/04/16 12:50:33;;;;;;;;;;;29.70;99.90;;;;;;4980353;28;19914;-82
2022/04/16 12:53:01;;;;;;;;;;;29.70;99.90;;;;;;4979890;28;19930;-83
2022/04/16 12:55:28;;;;;;;;;;;29.30;99.90;;;;;;4980196;28;19941;-82
2022/04/16 12:57:54;;;;;;;;;;;28.30;99.90;;;;;;4980251;28;19914;-83
2022/04/16 13:00:20;;;;;;;;;;;27.40;99.90;;;;;;4984269;28;19915;-84
2022/04/16 13:02:46;;;;;;;;;;;27.50;99.90;;;;;;4985476;28;19925;-84
2022/04/16 13:05:14;;;;;;;;;;;27.30;99.90;;;;;;4985244;28;19918;-84
2022/04/16 13:07:40;;;;;;;;;;;27.60;99.90;;;;;;4985342;28;19914;-84
2022/04/16 13:10:06;;;;;;;;;;;27.40;99.90;;;;;;4970993;28;20363;-84
2022/04/16 13:12:32;;;;;;;;;;;27.20;99.90;;;;;;4985562;28;20361;-84
2022/04/16 13:14:58;;;;;;;;;;;27.70;99.90;;;;;;4996181;28;19914;-84
2022/04/16 13:17:24;;;;;;;;;;;28.30;99.90;;;;;;4979443;28;20014;-84
2022/04/16 13:19:50;;;;;;;;;;;28.60;99.90;;;;;;4983341;28;19987;-85
2022/04/16 13:22:15;;;;;;;;;;;28.30;99.90;;;;;;4981085;28;19925;-84
2022/04/16 13:24:41;;;;;;;;;;;27.20;99.90;;;;;;4981169;28;19922;-84
2022/04/16 13:27:06;;;;;;;;;;;27.00;99.90;;;;;;4981088;28;20000;-84
2022/04/16 13:29:32;;;;;;;;;;;27.10;99.90;;;;;;4968239;28;20321;-84
2022/04/16 13:31:59;;;;;;;;;;;27.00;99.90;;;;;;4981150;28;19994;-83
2022/04/16 13:34:24;;;;;;;;;;;26.70;99.90;;;;;;4970346;28;19922;-82
2022/04/16 13:36:50;;;;;;;;;;;26.90;99.90;;;;;;4981821;28;19922;-83
2022/04/16 13:41:59;;;;;;;;;;;26.70;99.90;;;;;;4979617;28;19941;-84
2022/04/16 13:44:25;;;;;;;;;;;25.70;99.90;;;;;;4990879;28;19914;-83
2022/04/16 13:46:51;;;;;;;;;;;25.10;99.90;;;;;;4979338;28;20492;-84
2022/04/16 13:49:17;;;;;;;;;;;24.60;99.90;;;;;;4981624;28;19949;-83
2022/04/16 13:51:43;;;;;;;;;;;24.50;99.90;;;;;;4984204;28;19997;-83
2022/04/16 13:54:10;;;;;;;;;;;24.40;99.90;;;;;;4985600;28;19917;-84
2022/04/16 13:56:35;;;;;;;;;;;24.40;99.90;;;;;;4967275;28;20001;-83
2022/04/16 13:59:01;;;;;;;;;;;24.30;99.90;;;;;;4983297;28;19914;-84
2022/04/16 14:01:26;;;;;;;;;;;23.30;99.90;;;;;;4983636;28;19914;-83
2022/04/16 14:03:53;;;;;;;;;;;23.30;99.90;;;;;;4961922;28;19942;-82
2022/04/16 14:06:19;;;;;;;;;;;23.40;99.90;;;;;;4977287;28;20298;-83
2022/04/16 14:08:45;;;;;;;;;;;23.90;99.90;;;;;;4979141;28;19922;-83
2022/04/16 14:11:11;;;;;;;;;;;24.30;99.90;;;;;;4978652;28;19924;-83
2022/04/16 14:13:37;;;;;;;;;;;25.00;99.90;;;;;;4979276;28;19924;-83
2022/04/16 14:16:06;;;;;;;;;;;25.10;99.90;;;;;;4995337;23;19942;-82
2022/04/16 14:18:31;;;;;;;;;;;25.30;99.90;;;;;;4977960;28;19925;-79
2022/04/16 14:20:59;;;;;;;;;;;25.10;99.90;;;;;;4980792;28;19918;-79
2022/04/16 14:23:28;;;;;;;;;;;24.70;99.90;;;;;;4979405;28;19914;-80
2022/04/16 14:25:54;;;;;;;;;;;24.70;99.90;;;;;;4981155;28;19922;-80
2022/04/16 14:28:19;;;;;;;;;;;24.20;99.90;;;;;;4965667;28;19957;-80
2022/04/16 14:30:45;;;;;;;;;;;24.00;99.90;;;;;;4959697;28;19914;-81
2022/04/16 14:33:10;;;;;;;;;;;23.80;99.90;;;;;;4980962;28;19933;-81
2022/04/16 14:35:36;;;;;;;;;;;23.40;99.90;;;;;;4980971;28;19940;-80
2022/04/16 14:38:03;;;;;;;;;;;22.60;99.90;;;;;;4980031;28;20539;-80
2022/04/16 14:40:29;;;;;;;;;;;22.30;99.90;;;;;;4980672;28;19965;-80
2022/04/16 14:42:55;;;;;;;;;;;22.10;99.90;;;;;;4968549;28;19968;-79